Pagina principală
METAR-TAF:

METAR-TAF

Aeroporturi :

Ngaoundéré, Camerun

Latitudine: 07-21N, longitudine: 013-34E, elevație: 1114 m

Observații meteo curente

Raportul a fost făcut în urmă cu 21 ore și 36 de minute, la 11:00 UTC
Vânt 3 kt de la Nord/Nord-vest
Temperatură 30°C
Umiditate 59%
Presiune 1019 hPa
Vizibilitate de 10 km sau mai mult
Nori împrăștiați la o înălțime de 1300 picior

METAR: FKKN 271100Z 34003KT 9999 SCT013 30/21 Q1019

Ora: 09:36 (08:36 UTC)


TAF: lipsă

Observații și prognoze meteo pentru peste 4.000 de aeroporturi (rapoarte METAR și TAF).

Stațiile disponibile sunt reprezentate pe hartă prin puncte galbene și roșii.

Țineți indicatorul mouse-ului pe punctul dorit pentru a vedea denumirea stației.

Apoi, faceți clic pentru a vedea observațiile și prognozele meteorologice.

Pentru a schimba harta: Pentru mărire, faceți clic pe butoanele verzi cu cruce neagră; pentru micșorare, pe butonul verde cu o liniuță; pentru hărți învecinate, pe săgețile verzi.


METAR-TAF: